Time;durP1;ratioP1;P1;durP2;ratioP2;P2;SDS_P1;SDS_P2;PMS_P1;PMS_P2;Temp;Humidity;BMP_temperature;BMP_pressure;BME280_temperature;BME280_humidity;BME280_pressure;Samples;Min_cycle;Max_cycle;Signal;HPM_P1;HPM_P2
2021/05/17 00:02:12;;;;;;;;;;;10.90;99.90;;;;;;5056270;28;19921;-70
2021/05/17 00:04:41;;;;;;;;;;;10.90;99.90;;;;;;5058086;28;20319;-71
2021/05/17 00:07:10;;;;;;;;;;;11.00;99.90;;;;;;5056569;28;19952;-71
2021/05/17 00:09:39;;;;;;;;;;;10.90;99.90;;;;;;5056900;28;19971;-69
2021/05/17 00:15:01;;;;;;;;;;;10.90;99.90;;;;;;5073509;28;19928;-70
2021/05/17 00:17:29;;;;;;;;;;;10.90;99.90;;;;;;5056321;28;19928;-70
2021/05/17 00:19:58;;;;;;;;;;;10.80;99.90;;;;;;5056445;28;19920;-70
2021/05/17 00:22:26;;;;;;;;;;;10.90;99.90;;;;;;5057755;28;20394;-69
2021/05/17 00:24:54;;;;;;;;;;;10.90;99.90;;;;;;5056898;28;19960;-70
2021/05/17 00:27:22;;;;;;;;;;;11.10;99.90;;;;;;5056957;28;20364;-70
2021/05/17 00:29:50;;;;;;;;;;;11.20;99.90;;;;;;5058129;28;19927;-69
2021/05/17 00:32:18;;;;;;;;;;;11.30;99.90;;;;;;5056738;28;20338;-70
2021/05/17 00:34:47;;;;;;;;;;;11.20;99.90;;;;;;5057659;28;19957;-70
2021/05/17 00:37:19;;;;;;;;;;;11.20;99.90;;;;;;5056465;28;20137;-71
2021/05/17 00:39:47;;;;;;;;;;;11.10;99.90;;;;;;5057062;28;19920;-69
2021/05/17 00:42:16;;;;;;;;;;;11.20;99.90;;;;;;5073560;28;20288;-72
2021/05/17 00:44:44;;;;;;;;;;;11.10;99.90;;;;;;5072965;28;19928;-69
2021/05/17 00:47:13;;;;;;;;;;;11.20;99.90;;;;;;5071479;28;19920;-70
2021/05/17 00:49:42;;;;;;;;;;;11.20;99.90;;;;;;5078157;28;19927;-70
2021/05/17 00:52:10;;;;;;;;;;;11.10;99.90;;;;;;5075838;28;19932;-73
2021/05/17 00:54:38;;;;;;;;;;;11.10;99.90;;;;;;5076314;28;19982;-70
2021/05/17 00:57:07;;;;;;;;;;;11.10;99.90;;;;;;5076123;28;19960;-71
2021/05/17 00:59:35;;;;;;;;;;;11.10;99.90;;;;;;5076237;28;19931;-70
2021/05/17 01:02:03;;;;;;;;;;;11.00;99.90;;;;;;5044413;28;19921;-74
2021/05/17 01:05:02;;;;;;;;;;;10.90;99.90;;;;;;5036574;28;19928;-70
2021/05/17 01:07:31;;;;;;;;;;;10.90;99.90;;;;;;5050536;28;20463;-71
2021/05/17 01:10:00;;;;;;;;;;;10.90;99.90;;;;;;5037256;28;19952;-68
2021/05/17 01:12:54;;;;;;;;;;;10.90;99.90;;;;;;5035760;28;19971;-71
2021/05/17 01:15:22;;;;;;;;;;;11.00;99.90;;;;;;5036706;28;19978;-70
2021/05/17 01:17:50;;;;;;;;;;;11.10;99.90;;;;;;5036226;28;19921;-70
2021/05/17 01:20:21;;;;;;;;;;;11.10;99.90;;;;;;5019227;28;19921;-72
2021/05/17 01:22:55;;;;;;;;;;;11.10;99.90;;;;;;5035728;28;19921;-69
2021/05/17 01:25:24;;;;;;;;;;;11.20;99.90;;;;;;5052744;28;20009;-69
2021/05/17 01:27:55;;;;;;;;;;;11.30;99.90;;;;;;5038013;28;20072;-69
2021/05/17 01:33:18;;;;;;;;;;;11.20;99.90;;;;;;5037246;28;19927;-70
2021/05/17 01:35:48;;;;;;;;;;;11.30;99.90;;;;;;5037582;28;19925;-70
2021/05/17 01:38:16;;;;;;;;;;;11.10;99.90;;;;;;5036235;28;20016;-70
2021/05/17 01:40:46;;;;;;;;;;;11.10;99.90;;;;;;5035774;28;19928;-69
2021/05/17 01:43:15;;;;;;;;;;;11.10;99.90;;;;;;5037551;28;19960;-70
2021/05/17 01:45:44;;;;;;;;;;;11.10;99.90;;;;;;5035781;28;19925;-72
2021/05/17 01:48:12;;;;;;;;;;;11.20;99.90;;;;;;5036548;28;19963;-70
2021/05/17 01:50:40;;;;;;;;;;;11.20;99.90;;;;;;5036357;28;19951;-69
2021/05/17 01:53:08;;;;;;;;;;;11.10;99.90;;;;;;5037783;28;20667;-70
2021/05/17 01:55:37;;;;;;;;;;;11.10;99.90;;;;;;5035490;28;19995;-69
2021/05/17 01:58:06;;;;;;;;;;;11.10;99.90;;;;;;5036288;28;19925;-71
2021/05/17 02:00:36;;;;;;;;;;;11.10;99.90;;;;;;5034705;28;19927;-72
2021/05/17 02:03:06;;;;;;;;;;;11.20;99.90;;;;;;5035136;28;19924;-70
2021/05/17 02:05:34;;;;;;;;;;;11.20;99.90;;;;;;5035191;28;19980;-70
2021/05/17 02:08:28;;;;;;;;;;;11.10;99.90;;;;;;5032896;28;19921;-69
2021/05/17 02:11:00;;;;;;;;;;;11.10;99.90;;;;;;5034227;28;19921;-70
2021/05/17 02:13:33;;;;;;;;;;;11.10;99.90;;;;;;5033828;28;19920;-73
2021/05/17 02:16:01;;;;;;;;;;;11.00;99.90;;;;;;5033848;28;19921;-69
2021/05/17 02:18:29;;;;;;;;;;;11.00;99.90;;;;;;5035219;28;20380;-70
2021/05/17 02:20:57;;;;;;;;;;;11.00;99.90;;;;;;5034087;28;19921;-70
2021/05/17 02:23:26;;;;;;;;;;;11.00;99.90;;;;;;5035610;28;19925;-70
2021/05/17 02:25:54;;;;;;;;;;;10.90;99.90;;;;;;5035499;28;19933;-70
2021/05/17 02:28:23;;;;;;;;;;;11.00;99.90;;;;;;5045565;28;19921;-74
2021/05/17 02:30:52;;;;;;;;;;;11.00;99.90;;;;;;5038442;28;19976;-71
2021/05/17 02:33:21;;;;;;;;;;;11.10;99.90;;;;;;5034171;28;19920;-70
2021/05/17 02:35:51;;;;;;;;;;;11.00;99.90;;;;;;5017674;28;20035;-70
2021/05/17 02:38:20;;;;;;;;;;;11.00;99.90;;;;;;5034310;28;19921;-70
2021/05/17 02:40:49;;;;;;;;;;;11.00;99.90;;;;;;5034500;28;19921;-68
2021/05/17 02:43:21;;;;;;;;;;;10.90;99.90;;;;;;5035353;28;19921;-71
2021/05/17 02:45:55;;;;;;;;;;;10.90;99.90;;;;;;5033346;28;19928;-70
2021/05/17 02:48:28;;;;;;;;;;;11.00;99.90;;;;;;5034065;28;19921;-70
2021/05/17 02:50:56;;;;;;;;;;;11.00;99.90;;;;;;5035430;28;19987;-70
2021/05/17 02:53:25;;;;;;;;;;;11.00;99.90;;;;;;5035635;28;20372;-70
2021/05/17 02:55:55;;;;;;;;;;;11.00;99.90;;;;;;5035751;28;19924;-70
2021/05/17 02:58:23;;;;;;;;;;;11.00;99.90;;;;;;5036273;28;19921;-71
2021/05/17 03:00:53;;;;;;;;;;;11.00;99.90;;;;;;5042370;28;19956;-70
2021/05/17 03:03:24;;;;;;;;;;;11.00;99.90;;;;;;5054322;28;19928;-73
2021/05/17 03:06:02;;;;;;;;;;;11.10;99.90;;;;;;5055694;28;19921;-70
2021/05/17 03:08:33;;;;;;;;;;;11.10;99.90;;;;;;5052395;28;19921;-71
2021/05/17 03:11:02;;;;;;;;;;;11.10;99.90;;;;;;5054122;28;20422;-70
2021/05/17 03:13:31;;;;;;;;;;;11.10;99.90;;;;;;5070594;28;19920;-70
2021/05/17 03:15:58;;;;;;;;;;;11.00;99.90;;;;;;5047028;28;19935;-71
2021/05/17 03:18:27;;;;;;;;;;;11.00;99.90;;;;;;5036152;28;20039;-70
2021/05/17 03:20:55;;;;;;;;;;;11.00;99.90;;;;;;5018167;28;19921;-71
2021/05/17 03:23:23;;;;;;;;;;;10.90;99.90;;;;;;5018107;28;20380;-69
2021/05/17 03:25:50;;;;;;;;;;;11.00;99.90;;;;;;5034566;28;19921;-69
2021/05/17 03:28:18;;;;;;;;;;;11.00;99.90;;;;;;5034361;28;20318;-70
2021/05/17 03:30:47;;;;;;;;;;;11.00;99.90;;;;;;5041071;28;20007;-73
2021/05/17 03:33:15;;;;;;;;;;;11.00;99.90;;;;;;5054722;28;19920;-70
2021/05/17 03:35:43;;;;;;;;;;;11.00;99.90;;;;;;5054038;28;19963;-72
2021/05/17 03:38:11;;;;;;;;;;;11.00;99.90;;;;;;5055846;28;19927;-71
2021/05/17 03:40:39;;;;;;;;;;;11.10;99.90;;;;;;5055413;28;20364;-70
2021/05/17 03:43:07;;;;;;;;;;;11.00;99.90;;;;;;5056310;28;19925;-70
2021/05/17 03:45:36;;;;;;;;;;;11.10;99.90;;;;;;5055935;28;19928;-70
2021/05/17 03:48:04;;;;;;;;;;;11.00;99.90;;;;;;5039410;28;20023;-70
2021/05/17 03:50:31;;;;;;;;;;;11.00;99.90;;;;;;5058773;28;20016;-70
2021/05/17 03:53:00;;;;;;;;;;;11.10;99.90;;;;;;5060883;28;19928;-69
2021/05/17 03:55:27;;;;;;;;;;;11.20;99.90;;;;;;5061559;28;20199;-70
2021/05/17 03:58:20;;;;;;;;;;;11.10;99.90;;;;;;5062966;28;19947;-70
2021/05/17 04:00:47;;;;;;;;;;;11.10;99.90;;;;;;5060179;28;20008;-71
2021/05/17 04:03:18;;;;;;;;;;;11.10;99.90;;;;;;5071430;28;19927;-71
2021/05/17 04:05:57;;;;;;;;;;;11.10;99.90;;;;;;5054825;28;19921;-70
2021/05/17 04:14:01;;;;;;;;;;;11.20;99.90;;;;;;5056494;28;19927;-72
2021/05/17 04:16:29;;;;;;;;;;;11.10;99.90;;;;;;5056717;28;19927;-70
2021/05/17 04:18:56;;;;;;;;;;;11.00;99.90;;;;;;5057454;28;20341;-70
2021/05/17 04:21:24;;;;;;;;;;;11.10;99.90;;;;;;5058236;28;19921;-70
2021/05/17 04:23:53;;;;;;;;;;;11.20;99.90;;;;;;5055920;28;20368;-73
2021/05/17 04:26:22;;;;;;;;;;;11.20;99.90;;;;;;5056139;28;19973;-71
2021/05/17 04:28:50;;;;;;;;;;;11.30;99.90;;;;;;5072296;28;19927;-69
2021/05/17 04:31:18;;;;;;;;;;;11.30;99.90;;;;;;5056789;28;19927;-70
2021/05/17 04:33:46;;;;;;;;;;;11.30;99.90;;;;;;5072285;28;19921;-70
2021/05/17 04:36:14;;;;;;;;;;;11.30;99.90;;;;;;5056931;28;19920;-71
2021/05/17 04:38:42;;;;;;;;;;;11.30;99.90;;;;;;5055546;28;19982;-69
2021/05/17 04:41:11;;;;;;;;;;;11.30;99.90;;;;;;5057645;28;19920;-70
2021/05/17 04:44:03;;;;;;;;;;;11.40;99.90;;;;;;5039500;28;19921;-70
2021/05/17 04:46:31;;;;;;;;;;;11.40;99.90;;;;;;5055794;28;19943;-70
2021/05/17 04:49:00;;;;;;;;;;;11.40;99.90;;;;;;5055749;28;19947;-73
2021/05/17 04:51:28;;;;;;;;;;;11.30;99.90;;;;;;5056996;28;19974;-71
2021/05/17 04:53:55;;;;;;;;;;;11.30;99.90;;;;;;5057286;28;19928;-73
2021/05/17 04:56:24;;;;;;;;;;;11.30;99.90;;;;;;5055387;28;20407;-69
2021/05/17 04:58:53;;;;;;;;;;;11.30;99.90;;;;;;5055837;28;20330;-71
2021/05/17 05:01:20;;;;;;;;;;;11.30;99.90;;;;;;5071791;28;19927;-70
2021/05/17 05:03:48;;;;;;;;;;;11.30;99.90;;;;;;5056895;28;19921;-69
2021/05/17 05:06:16;;;;;;;;;;;11.20;99.90;;;;;;5057274;28;19920;-70
2021/05/17 05:08:44;;;;;;;;;;;11.30;99.90;;;;;;5071397;28;19920;-73
2021/05/17 05:11:12;;;;;;;;;;;11.30;99.90;;;;;;5072810;28;19932;-71
2021/05/17 05:13:40;;;;;;;;;;;11.30;99.90;;;;;;5056180;28;20349;-71
2021/05/17 05:16:09;;;;;;;;;;;11.40;99.90;;;;;;5055714;28;19921;-69
2021/05/17 05:18:36;;;;;;;;;;;11.40;99.90;;;;;;5056478;28;20011;-70
2021/05/17 05:21:04;;;;;;;;;;;11.40;99.90;;;;;;5055355;28;20260;-72
2021/05/17 05:23:32;;;;;;;;;;;11.50;99.90;;;;;;5054805;28;20352;-70
2021/05/17 05:29:06;;;;;;;;;;;11.50;99.90;;;;;;5052504;28;20344;-71
2021/05/17 05:31:39;;;;;;;;;;;11.50;99.90;;;;;;5037296;28;19931;-72
2021/05/17 05:34:07;;;;;;;;;;;11.50;99.90;;;;;;5071590;28;20398;-73
2021/05/17 05:36:36;;;;;;;;;;;11.50;99.90;;;;;;5056507;28;19921;-71
2021/05/17 05:39:04;;;;;;;;;;;11.50;99.90;;;;;;5055653;28;19928;-71
2021/05/17 05:41:35;;;;;;;;;;;11.50;99.90;;;;;;5055641;28;20349;-71
2021/05/17 05:44:04;;;;;;;;;;;11.40;99.90;;;;;;5055727;28;20387;-70
2021/05/17 05:46:32;;;;;;;;;;;11.20;99.90;;;;;;5055716;28;19920;-71
2021/05/17 05:49:00;;;;;;;;;;;11.30;99.90;;;;;;5056362;28;19991;-72
2021/05/17 05:51:29;;;;;;;;;;;11.10;99.90;;;;;;5056553;28;19924;-70
2021/05/17 05:53:57;;;;;;;;;;;11.00;99.90;;;;;;5054635;28;19921;-71
2021/05/17 05:56:25;;;;;;;;;;;10.90;99.90;;;;;;5054310;28;19952;-71
2021/05/17 05:58:53;;;;;;;;;;;10.90;99.90;;;;;;5054469;28;19971;-72
2021/05/17 06:01:22;;;;;;;;;;;10.80;99.90;;;;;;5053985;28;19966;-71
2021/05/17 06:03:50;;;;;;;;;;;10.80;99.90;;;;;;5054973;28;20545;-70
2021/05/17 06:06:17;;;;;;;;;;;10.60;99.90;;;;;;5053906;28;19974;-71
2021/05/17 06:08:47;;;;;;;;;;;10.70;99.90;;;;;;5051949;28;20273;-71
2021/05/17 06:11:14;;;;;;;;;;;10.70;99.90;;;;;;5054256;28;19927;-72
2021/05/17 06:13:44;;;;;;;;;;;10.60;99.90;;;;;;5055000;28;19932;-71
2021/05/17 06:16:12;;;;;;;;;;;10.60;99.90;;;;;;5054149;28;19928;-71
2021/05/17 06:18:41;;;;;;;;;;;10.60;99.90;;;;;;5053873;28;20008;-70
2021/05/17 06:21:09;;;;;;;;;;;10.60;99.90;;;;;;5036814;28;19924;-71
2021/05/17 06:23:37;;;;;;;;;;;10.70;99.90;;;;;;5054573;28;20399;-71
2021/05/17 06:26:05;;;;;;;;;;;10.80;99.90;;;;;;5053503;28;19928;-71
2021/05/17 06:28:33;;;;;;;;;;;10.90;99.90;;;;;;5055055;28;19925;-71
2021/05/17 06:31:04;;;;;;;;;;;11.10;99.90;;;;;;5054154;28;19956;-69
2021/05/17 06:33:32;;;;;;;;;;;11.30;99.90;;;;;;5071338;28;19920;-72
2021/05/17 06:36:01;;;;;;;;;;;11.60;99.90;;;;;;5055266;28;19925;-71
2021/05/17 06:38:30;;;;;;;;;;;11.90;99.90;;;;;;5054658;28;19920;-69
2021/05/17 06:40:58;;;;;;;;;;;12.20;99.90;;;;;;5071603;28;19929;-71
2021/05/17 06:43:26;;;;;;;;;;;12.20;99.90;;;;;;5055036;28;19927;-70
2021/05/17 06:45:55;;;;;;;;;;;12.10;99.90;;;;;;5055441;28;19944;-70
2021/05/17 06:48:23;;;;;;;;;;;11.70;99.90;;;;;;5055483;28;19921;-70
2021/05/17 06:50:51;;;;;;;;;;;11.50;99.90;;;;;;5056383;28;20104;-72
2021/05/17 06:53:20;;;;;;;;;;;11.50;99.90;;;;;;5038449;28;19932;-70
2021/05/17 06:55:56;;;;;;;;;;;11.30;99.90;;;;;;5056032;28;20328;-73
2021/05/17 06:58:28;;;;;;;;;;;11.20;99.90;;;;;;5055101;28;19920;-71
2021/05/17 07:00:56;;;;;;;;;;;11.20;99.90;;;;;;5053045;28;19927;-73
2021/05/17 07:03:24;;;;;;;;;;;11.10;99.90;;;;;;5053638;28;19974;-70
2021/05/17 07:05:54;;;;;;;;;;;10.90;99.90;;;;;;5057099;28;19929;-71
2021/05/17 07:13:55;;;;;;;;;;;10.70;99.90;;;;;;5054018;28;19990;-71
2021/05/17 07:16:23;;;;;;;;;;;10.70;99.90;;;;;;5052067;28;19921;-71
2021/05/17 07:18:51;;;;;;;;;;;10.80;99.90;;;;;;5052697;28;19920;-71
2021/05/17 07:24:07;;;;;;;;;;;11.20;99.90;;;;;;5028186;28;19920;-69
2021/05/17 07:26:35;;;;;;;;;;;11.30;99.90;;;;;;5053260;28;19928;-71
2021/05/17 07:29:05;;;;;;;;;;;11.30;99.90;;;;;;5054707;28;19927;-69
2021/05/17 07:31:33;;;;;;;;;;;11.30;99.90;;;;;;5053580;28;19921;-70
2021/05/17 07:34:02;;;;;;;;;;;11.40;99.90;;;;;;5070369;28;20307;-71
2021/05/17 07:36:30;;;;;;;;;;;11.60;99.90;;;;;;5053762;28;19921;-69
2021/05/17 07:38:58;;;;;;;;;;;11.50;99.90;;;;;;5054531;28;20023;-71
2021/05/17 07:41:27;;;;;;;;;;;11.40;99.90;;;;;;5055390;28;20280;-71
2021/05/17 07:43:55;;;;;;;;;;;11.20;99.90;;;;;;5055535;28;20030;-70
2021/05/17 07:46:23;;;;;;;;;;;11.00;99.90;;;;;;5053411;28;19924;-70
2021/05/17 07:49:08;;;;;;;;;;;10.70;99.90;;;;;;5053410;28;19928;-70
2021/05/17 07:51:36;;;;;;;;;;;10.50;99.90;;;;;;5057855;28;19920;-70
2021/05/17 07:54:04;;;;;;;;;;;10.30;99.90;;;;;;5056553;28;20326;-73
2021/05/17 07:56:33;;;;;;;;;;;10.30;99.90;;;;;;5072988;28;20449;-70
2021/05/17 07:59:01;;;;;;;;;;;10.30;99.90;;;;;;5057943;28;19921;-72
2021/05/17 08:01:29;;;;;;;;;;;10.60;99.90;;;;;;5039505;28;20540;-70
2021/05/17 08:03:57;;;;;;;;;;;10.90;99.90;;;;;;5057236;28;19920;-69
2021/05/17 08:06:25;;;;;;;;;;;11.20;99.90;;;;;;5058361;28;19920;-68
2021/05/17 08:08:53;;;;;;;;;;;11.30;99.90;;;;;;5072208;28;19927;-70
2021/05/17 08:11:22;;;;;;;;;;;11.20;99.90;;;;;;5057220;28;19920;-69
2021/05/17 08:13:50;;;;;;;;;;;11.10;99.90;;;;;;5060534;28;19921;-68
2021/05/17 08:16:22;;;;;;;;;;;11.60;99.90;;;;;;5063098;28;19986;-69
2021/05/17 08:18:51;;;;;;;;;;;12.20;99.90;;;;;;5064846;28;19935;-73
2021/05/17 08:21:20;;;;;;;;;;;12.60;99.90;;;;;;5068301;28;19920;-70
2021/05/17 08:23:47;;;;;;;;;;;12.90;99.90;;;;;;5065944;28;19936;-70
2021/05/17 08:26:15;;;;;;;;;;;12.90;99.90;;;;;;5061483;28;19920;-69
2021/05/17 08:29:08;;;;;;;;;;;13.00;99.90;;;;;;5061564;28;19921;-69
2021/05/17 08:31:36;;;;;;;;;;;12.60;99.90;;;;;;5061226;28;19920;-72
2021/05/17 08:34:04;;;;;;;;;;;12.40;99.90;;;;;;5062095;28;19940;-69
2021/05/17 08:36:32;;;;;;;;;;;12.20;99.90;;;;;;5064267;28;19927;-69
2021/05/17 08:39:00;;;;;;;;;;;14.40;99.90;;;;;;5076907;28;19921;-69
2021/05/17 08:41:32;;;;;;;;;;;18.40;99.90;;;;;;5062394;28;19921;-68
2021/05/17 08:44:01;;;;;;;;;;;21.90;95.00;;;;;;5062466;28;19920;-71
2021/05/17 08:46:30;;;;;;;;;;;21.80;90.40;;;;;;5062627;28;19956;-70
2021/05/17 08:48:57;;;;;;;;;;;21.50;89.60;;;;;;5061342;28;19927;-69
2021/05/17 08:51:26;;;;;;;;;;;21.80;86.70;;;;;;5061757;28;19924;-69
2021/05/17 08:53:54;;;;;;;;;;;20.10;91.70;;;;;;5061948;28;19921;-69
2021/05/17 08:56:24;;;;;;;;;;;18.80;91.80;;;;;;5061652;28;19921;-68
2021/05/17 08:58:54;;;;;;;;;;;16.60;95.30;;;;;;5077877;28;19960;-69
2021/05/17 09:01:22;;;;;;;;;;;15.00;99.90;;;;;;5062479;28;19921;-70
2021/05/17 09:03:54;;;;;;;;;;;14.10;99.90;;;;;;5060404;28;20242;-72
2021/05/17 09:06:23;;;;;;;;;;;13.50;99.90;;;;;;5062408;28;19920;-70
2021/05/17 09:08:52;;;;;;;;;;;13.10;99.90;;;;;;5074094;28;19920;-70
2021/05/17 09:11:29;;;;;;;;;;;12.80;99.90;;;;;;5066939;28;19956;-70
2021/05/17 09:14:11;;;;;;;;;;;12.50;99.90;;;;;;5062896;28;20303;-71
2021/05/17 09:16:45;;;;;;;;;;;12.30;99.90;;;;;;5054804;28;20143;-70
2021/05/17 09:19:14;;;;;;;;;;;12.20;99.90;;;;;;5057564;28;19962;-71
2021/05/17 09:21:55;;;;;;;;;;;11.90;99.90;;;;;;5056727;28;19925;-71
2021/05/17 09:24:33;;;;;;;;;;;11.90;99.90;;;;;;5055587;28;19920;-73
2021/05/17 09:27:01;;;;;;;;;;;11.60;99.90;;;;;;5055573;28;19921;-71
2021/05/17 09:29:35;;;;;;;;;;;11.20;99.90;;;;;;5056721;28;20401;-70
2021/05/17 09:32:09;;;;;;;;;;;11.00;99.90;;;;;;5054111;28;19928;-71
2021/05/17 09:34:40;;;;;;;;;;;11.10;99.90;;;;;;5056823;28;19928;-68
2021/05/17 09:40:00;;;;;;;;;;;13.10;99.90;;;;;;5056159;28;20402;-71
2021/05/17 09:42:30;;;;;;;;;;;14.40;99.90;;;;;;5072540;28;19960;-71
2021/05/17 09:44:58;;;;;;;;;;;14.90;99.90;;;;;;5057946;28;19921;-74
2021/05/17 09:47:30;;;;;;;;;;;14.50;99.90;;;;;;5055378;28;19921;-71
2021/05/17 09:50:01;;;;;;;;;;;14.70;99.90;;;;;;5055488;28;20020;-71
2021/05/17 09:52:33;;;;;;;;;;;14.90;99.90;;;;;;5054943;28;19920;-71
2021/05/17 09:55:02;;;;;;;;;;;14.80;99.90;;;;;;5055300;28;19927;-72
2021/05/17 09:57:32;;;;;;;;;;;14.50;99.90;;;;;;5056569;28;19935;-71
2021/05/17 10:00:06;;;;;;;;;;;15.10;99.90;;;;;;5056789;28;19920;-71
2021/05/17 10:02:39;;;;;;;;;;;15.00;99.90;;;;;;5035485;28;20016;-72
2021/05/17 10:05:11;;;;;;;;;;;14.50;99.90;;;;;;5037134;28;19932;-71
2021/05/17 10:07:40;;;;;;;;;;;13.90;99.90;;;;;;5035190;28;19921;-71
2021/05/17 10:10:09;;;;;;;;;;;14.10;99.90;;;;;;5035939;28;19928;-72
2021/05/17 10:12:41;;;;;;;;;;;14.70;99.90;;;;;;5034468;28;19992;-70
2021/05/17 10:15:11;;;;;;;;;;;15.70;99.90;;;;;;5051668;28;19925;-70
2021/05/17 10:17:39;;;;;;;;;;;15.50;99.90;;;;;;5075914;28;19955;-70
2021/05/17 10:20:09;;;;;;;;;;;15.10;99.90;;;;;;5092638;28;19920;-70
2021/05/17 10:22:38;;;;;;;;;;;14.70;99.90;;;;;;5076269;28;20284;-71
2021/05/17 10:25:06;;;;;;;;;;;14.30;99.90;;;;;;5075452;28;19921;-71
2021/05/17 10:27:38;;;;;;;;;;;14.50;99.90;;;;;;5075454;28;20717;-71
2021/05/17 10:30:09;;;;;;;;;;;15.00;99.90;;;;;;5075525;28;19960;-70
2021/05/17 10:32:40;;;;;;;;;;;15.20;99.90;;;;;;5035724;28;19932;-71
2021/05/17 10:35:10;;;;;;;;;;;15.30;99.90;;;;;;5036091;28;19929;-71
2021/05/17 10:38:17;;;;;;;;;;;15.70;99.90;;;;;;5035534;28;19921;-71
2021/05/17 10:40:53;;;;;;;;;;;16.00;98.90;;;;;;5053529;28;19925;-72
2021/05/17 10:43:40;;;;;;;;;;;15.90;98.00;;;;;;5036971;28;19995;-70
2021/05/17 10:49:11;;;;;;;;;;;15.90;97.90;;;;;;5052392;28;19921;-72
2021/05/17 10:51:39;;;;;;;;;;;15.50;98.20;;;;;;5034738;28;19957;-72
2021/05/17 10:54:20;;;;;;;;;;;15.90;98.50;;;;;;5036493;28;19928;-73
2021/05/17 10:56:54;;;;;;;;;;;15.80;98.40;;;;;;5036124;28;19920;-72
2021/05/17 11:02:18;;;;;;;;;;;16.60;97.20;;;;;;5036404;28;19921;-72
2021/05/17 11:05:03;;;;;;;;;;;16.80;96.30;;;;;;5053302;28;20003;-74
2021/05/17 11:07:33;;;;;;;;;;;16.40;97.10;;;;;;5038174;28;19921;-72
2021/05/17 11:10:12;;;;;;;;;;;16.00;97.10;;;;;;5033309;28;20024;-70
2021/05/17 11:12:55;;;;;;;;;;;15.50;98.00;;;;;;5036285;28;19944;-70
2021/05/17 11:15:53;;;;;;;;;;;16.00;97.10;;;;;;5035332;28;20296;-72
2021/05/17 11:18:22;;;;;;;;;;;16.20;95.90;;;;;;5034847;28;19921;-72
2021/05/17 11:20:51;;;;;;;;;;;16.30;95.50;;;;;;5035409;28;19925;-70
2021/05/17 11:23:20;;;;;;;;;;;16.00;95.20;;;;;;5037380;28;20463;-71
2021/05/17 11:26:00;;;;;;;;;;;15.90;95.50;;;;;;5040380;28;19990;-70
2021/05/17 11:28:48;;;;;;;;;;;15.60;95.60;;;;;;5040287;28;19921;-71
2021/05/17 11:31:19;;;;;;;;;;;15.50;95.80;;;;;;5038351;28;20272;-71
2021/05/17 11:33:50;;;;;;;;;;;15.20;96.40;;;;;;5039495;28;19928;-72
2021/05/17 11:36:19;;;;;;;;;;;15.10;96.80;;;;;;5038350;28;19921;-72
2021/05/17 11:39:10;;;;;;;;;;;15.00;97.20;;;;;;5038529;28;19975;-71
2021/05/17 11:41:41;;;;;;;;;;;14.90;97.80;;;;;;5039474;28;19921;-71
2021/05/17 11:44:10;;;;;;;;;;;15.00;97.80;;;;;;5039951;28;20360;-74
2021/05/17 11:46:38;;;;;;;;;;;15.00;97.40;;;;;;5038285;28;20000;-72
2021/05/17 11:49:10;;;;;;;;;;;14.90;97.20;;;;;;5040700;28;19984;-75
2021/05/17 11:51:38;;;;;;;;;;;14.80;97.60;;;;;;5037789;28;19921;-71
2021/05/17 11:54:06;;;;;;;;;;;14.80;97.70;;;;;;5039709;28;19921;-71
2021/05/17 11:56:38;;;;;;;;;;;15.10;97.70;;;;;;5039416;28;19948;-71
2021/05/17 11:59:07;;;;;;;;;;;15.30;97.70;;;;;;5055036;28;19921;-71
2021/05/17 12:01:35;;;;;;;;;;;15.10;97.30;;;;;;5038259;28;19921;-73
2021/05/17 12:04:13;;;;;;;;;;;14.90;97.00;;;;;;5038935;28;19960;-72
2021/05/17 12:06:45;;;;;;;;;;;15.20;96.80;;;;;;5037219;28;19927;-71
2021/05/17 12:09:25;;;;;;;;;;;15.20;95.80;;;;;;5036313;28;19921;-71
2021/05/17 12:11:53;;;;;;;;;;;15.20;96.00;;;;;;5038869;28;19948;-71
2021/05/17 12:14:22;;;;;;;;;;;15.00;96.40;;;;;;5038876;28;19928;-71
2021/05/17 12:17:00;;;;;;;;;;;14.40;96.60;;;;;;5038618;28;19924;-72
2021/05/17 12:19:27;;;;;;;;;;;14.30;97.40;;;;;;5039384;28;19921;-74
2021/05/17 12:21:58;;;;;;;;;;;14.60;97.30;;;;;;5038012;28;19975;-72
2021/05/17 12:24:27;;;;;;;;;;;14.70;96.60;;;;;;5036819;28;19921;-71
2021/05/17 12:26:57;;;;;;;;;;;14.80;95.90;;;;;;5038334;28;19921;-71
2021/05/17 12:29:28;;;;;;;;;;;14.80;96.00;;;;;;5038565;28;19999;-71
2021/05/17 12:32:09;;;;;;;;;;;15.30;96.40;;;;;;5037699;28;19928;-70
2021/05/17 12:34:37;;;;;;;;;;;16.10;95.30;;;;;;5038507;28;19921;-71
2021/05/17 12:37:05;;;;;;;;;;;16.40;94.70;;;;;;5054479;28;19928;-70
2021/05/17 12:39:33;;;;;;;;;;;16.60;94.90;;;;;;5038857;28;19985;-72
2021/05/17 12:42:00;;;;;;;;;;;16.20;94.90;;;;;;5038838;28;19932;-70
2021/05/17 12:44:30;;;;;;;;;;;16.10;95.00;;;;;;5039291;28;19925;-71
2021/05/17 12:47:02;;;;;;;;;;;15.90;94.80;;;;;;5053589;28;20324;-71
2021/05/17 12:49:43;;;;;;;;;;;15.50;94.30;;;;;;5037552;28;20019;-70
2021/05/17 12:52:11;;;;;;;;;;;15.50;95.10;;;;;;5037810;28;20348;-71
2021/05/17 12:54:38;;;;;;;;;;;15.20;94.70;;;;;;5037342;28;19992;-72
2021/05/17 12:57:08;;;;;;;;;;;15.20;95.00;;;;;;5019496;28;19943;-71
2021/05/17 12:59:46;;;;;;;;;;;15.20;95.40;;;;;;5019911;28;20388;-71
2021/05/17 13:02:14;;;;;;;;;;;15.40;95.10;;;;;;5036732;28;19964;-71
2021/05/17 13:04:55;;;;;;;;;;;15.30;95.10;;;;;;5036998;28;20322;-72
2021/05/17 13:07:26;;;;;;;;;;;15.20;95.40;;;;;;5037095;28;19921;-71
2021/05/17 13:09:56;;;;;;;;;;;15.30;95.80;;;;;;5051698;28;19971;-72
2021/05/17 13:12:50;;;;;;;;;;;15.20;95.60;;;;;;5037991;28;20265;-72
2021/05/17 13:15:20;;;;;;;;;;;15.10;95.90;;;;;;5036641;28;20284;-72
2021/05/17 13:17:55;;;;;;;;;;;15.00;96.40;;;;;;5037531;28;19975;-74
2021/05/17 13:20:25;;;;;;;;;;;15.20;96.00;;;;;;5037256;28;19929;-71
2021/05/17 13:23:20;;;;;;;;;;;15.20;95.60;;;;;;5036585;28;19931;-71
2021/05/17 13:31:48;;;;;;;;;;;15.70;94.00;;;;;;5036888;28;19936;-72
2021/05/17 13:34:16;;;;;;;;;;;15.80;94.00;;;;;;5035828;28;20287;-71
2021/05/17 13:36:44;;;;;;;;;;;15.50;93.80;;;;;;5036822;28;19981;-72
2021/05/17 13:39:15;;;;;;;;;;;15.00;94.00;;;;;;5037471;28;20407;-72
2021/05/17 13:41:43;;;;;;;;;;;14.80;94.80;;;;;;5036919;28;20347;-71
2021/05/17 13:44:19;;;;;;;;;;;14.70;95.50;;;;;;5037094;28;19924;-68
2021/05/17 13:46:48;;;;;;;;;;;14.90;95.50;;;;;;5035538;28;20250;-68
2021/05/17 13:49:21;;;;;;;;;;;15.30;95.40;;;;;;5037918;28;20004;-71
2021/05/17 13:51:49;;;;;;;;;;;15.60;94.00;;;;;;5052665;28;20295;-72
2021/05/17 13:54:18;;;;;;;;;;;15.90;93.60;;;;;;5037892;28;20180;-71
2021/05/17 13:56:47;;;;;;;;;;;16.10;93.80;;;;;;5037655;28;20335;-71
2021/05/17 13:59:15;;;;;;;;;;;16.30;93.60;;;;;;5036814;28;20325;-71
2021/05/17 14:01:43;;;;;;;;;;;16.30;93.60;;;;;;5037474;28;19921;-71
2021/05/17 14:04:11;;;;;;;;;;;15.50;94.30;;;;;;5037245;28;20071;-71
2021/05/17 14:06:39;;;;;;;;;;;15.40;94.60;;;;;;5053142;28;19921;-72
2021/05/17 14:09:08;;;;;;;;;;;15.60;94.80;;;;;;5034535;28;19959;-71
2021/05/17 14:11:36;;;;;;;;;;;15.80;94.80;;;;;;5038610;28;19967;-74
2021/05/17 14:14:04;;;;;;;;;;;15.90;94.70;;;;;;5035925;28;19921;-71
2021/05/17 14:16:32;;;;;;;;;;;15.90;94.60;;;;;;5036715;28;20438;-72
2021/05/17 14:18:59;;;;;;;;;;;16.00;94.70;;;;;;5037448;28;20349;-72
2021/05/17 14:21:28;;;;;;;;;;;16.00;94.90;;;;;;5038945;28;19930;-72
2021/05/17 14:23:56;;;;;;;;;;;15.90;94.40;;;;;;5036647;28;19921;-71
2021/05/17 14:26:26;;;;;;;;;;;16.10;94.60;;;;;;5038058;28;19955;-71
2021/05/17 14:28:55;;;;;;;;;;;16.10;94.50;;;;;;5019439;28;20369;-71
2021/05/17 14:31:23;;;;;;;;;;;16.00;94.90;;;;;;5036573;28;20226;-72
2021/05/17 14:33:51;;;;;;;;;;;16.30;94.70;;;;;;5037935;28;20373;-73
2021/05/17 14:36:19;;;;;;;;;;;16.60;94.60;;;;;;5053421;28;19948;-72
2021/05/17 14:38:49;;;;;;;;;;;16.30;94.40;;;;;;5037838;28;19921;-71
2021/05/17 14:44:08;;;;;;;;;;;15.90;95.00;;;;;;5051980;28;19925;-72
2021/05/17 14:46:36;;;;;;;;;;;15.80;95.60;;;;;;5019077;28;19925;-72
2021/05/17 14:49:05;;;;;;;;;;;16.00;95.40;;;;;;5036410;28;19959;-74
2021/05/17 14:51:32;;;;;;;;;;;16.50;95.10;;;;;;5036583;28;19929;-71
2021/05/17 14:54:01;;;;;;;;;;;16.80;94.60;;;;;;5036417;28;19925;-71
2021/05/17 14:56:29;;;;;;;;;;;17.20;94.30;;;;;;5038431;28;19932;-71
2021/05/17 14:58:58;;;;;;;;;;;17.00;94.20;;;;;;5053332;28;19940;-71
2021/05/17 15:01:26;;;;;;;;;;;16.70;94.90;;;;;;5036949;28;20011;-71
2021/05/17 15:03:53;;;;;;;;;;;16.50;94.10;;;;;;5019011;28;19925;-72
2021/05/17 15:06:21;;;;;;;;;;;16.10;94.90;;;;;;5035107;28;19976;-72
2021/05/17 15:09:16;;;;;;;;;;;15.90;95.30;;;;;;5015735;28;20442;-72
2021/05/17 15:11:45;;;;;;;;;;;16.10;95.20;;;;;;5015708;28;20024;-72
2021/05/17 15:14:13;;;;;;;;;;;16.20;94.70;;;;;;5031495;28;19930;-71
2021/05/17 15:16:41;;;;;;;;;;;16.40;94.50;;;;;;5028292;28;19931;-71